クチン の空港の天気 - METARとTAF

クチン国際空港 ( WBGG / KCH ) - マレーシア サラワク州クチン
飛行場実況気象(Metar)
観測時間07/13 05:00 MYT (07/12 21:00 UTC)
風向・風速不定 1m/s
視程10km以上
天気現象
少しの雲 雲底高度 610m
気温25℃
湿度94%
気圧1008hPa
METARWBGG 122100Z VRB01KT 9999 FEW020 25/24 Q1008 NOSIG
過去の天気等 Google飛行場航空写真 Wunderground天気予報

過去48時間のMETAR

飛行場予報(TAF)
発表時間: 7/13 01:00 MYT (7/12 17:00 UTC)
予報対象時間: 13日2時 MYT ~ 14日2時 MYT
風向・風速不定 2m/s
視程10km以上
全天の4割程度の雲 雲底高度 610m
TAF WBGG 121700Z 1218/1318 VRB03KT 9999 SCT020